Kakariki — ZMKA — position and weather

sailwx.info

Track history (hours):
 
Tides and Currents Weather Stations Pressure Air Temp Water Temp Dewpoint Dewpoint Depression Visibility Wind Speed Wind Dir Waves Ship Positions

Kakariki

Last reported at 2015-Aug-26 18:07 UTC. Time now 2015-Aug-28 02:19 UTC.
Position S 36°30' E 175°50'.

Length 183 m; beam 32 m; draft 11 m.

Type: Ship (hazmat cat A). MMSI: 512000050.

Date/timePositionNaut miles runAvg speedWind from/ knotsBaromVisibWave heightAir tempDewpointWater temp
2015-Aug-26 18:07S 36°30' E 175°50'712.0
2015-Aug-26 17:30S 36°27' E 175°42'1411.9
2015-Aug-26 16:19S 36°23' E 175°25'911.7
2015-Aug-26 15:33S 36°20' E 175°14'1111.6
2015-Aug-26 14:33S 36°16' E 175°01'1212.1
2015-Aug-26 13:32S 36°08' E 174°49'7 0.2
2015-Aug-24 12:18S 36°13' E 174°56'911.8
2015-Aug-24 11:33S 36°18' E 175°05'1212.4
2015-Aug-24 10:34S 36°21' E 175°20'2512.5
2015-Aug-24 08:33S 36°29' E 175°50'  
2015-Aug-21 12:29S 36°23' E 175°25'1112.0
2015-Aug-21 11:33S 36°19' E 175°12'1211.9
2015-Aug-21 10:33S 36°14' E 174°58'1212.3
2015-Aug-21 09:33S 36°06' E 174°46'  
2015-Aug-18 02:33S 36°14' E 174°57'1312.7
2015-Aug-18 01:33S 36°19' E 175°11'3012.7
2015-Aug-17 23:12S 36°29' E 175°47'  
Track history (hours):
 
Tides and Currents Weather Stations Pressure Air Temp Water Temp Dewpoint Dewpoint Depression Visibility Wind Speed Wind Dir Waves Ship Positions

Kakariki

Last reported at 2015-Aug-26 18:07 UTC. Time now 2015-Aug-28 02:19 UTC.
Position S 36°30' E 175°50'.

Length 183 m; beam 32 m; draft 11 m.

Type: Ship (hazmat cat A). MMSI: 512000050.

Date/timePositionNaut miles runAvg speedWind from/ knotsBaromVisibWave heightAir tempDewpointWater temp
2015-Aug-26 18:07S 36°30' E 175°50'712.0
2015-Aug-26 17:30S 36°27' E 175°42'1411.9
2015-Aug-26 16:19S 36°23' E 175°25'911.7
2015-Aug-26 15:33S 36°20' E 175°14'1111.6
2015-Aug-26 14:33S 36°16' E 175°01'1212.1
2015-Aug-26 13:32S 36°08' E 174°49'7 0.2
2015-Aug-24 12:18S 36°13' E 174°56'911.8
2015-Aug-24 11:33S 36°18' E 175°05'1212.4
2015-Aug-24 10:34S 36°21' E 175°20'2512.5
2015-Aug-24 08:33S 36°29' E 175°50'  
2015-Aug-21 12:29S 36°23' E 175°25'1112.0
2015-Aug-21 11:33S 36°19' E 175°12'1211.9
2015-Aug-21 10:33S 36°14' E 174°58'1212.3
2015-Aug-21 09:33S 36°06' E 174°46'  
2015-Aug-18 02:33S 36°14' E 174°57'1312.7
2015-Aug-18 01:33S 36°19' E 175°11'3012.7
2015-Aug-17 23:12S 36°29' E 175°47'  

Dump ship's entire track history